PWSweather.com
Personal Weather Stations
Station Observations
KAZSIERR7
Canyon De Flores, Sierra Vista, AZ 85650

Canyon De FloresSierra Vista, AZ 85650

Lat: 31.5, Lon: -110.26

Elevation: 4645

Station Type: LaCrosse WS-3610 & Boltek Lightning Detector

http://www.lightningring.com/weather/

High Low Average
Temperature 94.1°F34.5°C 68.1°F20.1°C 80.0°F26.7°C
Dew Point 56.3°F13.5°C 47.0°F8.3°C 52.0°F11.1°C
Winds 8.0 mph 12.9 kmh Calm Calm 1.0 mph SSW1.6 kmh SSW
Wind Gusts 57.2 mph92.1 kmh -- 9.0 mph14.5 kmh
Humidity 57% 23% 40%
Pressure 30.14 in1020.7 mb 30.03 in1016.9 mb -
Precipitation 0.00 in0.0 mm - -
Hour Temp Dew Point Humidity Winds Wind Gusts Pressure Precip Precip Rate Daily Precip Total
12:01 AM 77.8°F25.4°C 47.0°F8.3°C 34% Calm Calm 1.2 mph1.9 kmh 30.10 in1019.3 mb 0.00 in0.0 mm 0.00 in/hr0.0 mm/hr 0.00 in0.0 mm
12:11 AM 77.5°F25.3°C 49.8°F9.9°C 38% Calm Calm -- 30.10 in1019.3 mb 0.00 in0.0 mm 0.00 in/hr0.0 mm/hr 0.00 in0.0 mm
12:22 AM 76.4°F24.7°C 49.5°F9.7°C 39% Calm Calm -- 30.09 in1019.0 mb 0.00 in0.0 mm 0.00 in/hr0.0 mm/hr 0.00 in0.0 mm
12:32 AM 76.2°F24.6°C 47.9°F8.8°C 37% Calm Calm -- 30.09 in1019.0 mb 0.00 in0.0 mm 0.00 in/hr0.0 mm/hr 0.00 in0.0 mm
12:43 AM 75.7°F24.3°C 48.2°F9.0°C 38% Calm Calm -- 30.08 in1018.6 mb 0.00 in0.0 mm 0.00 in/hr0.0 mm/hr 0.00 in0.0 mm
12:53 AM 76.6°F24.8°C 47.5°F8.6°C 36% 3.0 mph SW4.8 kmh SW 4.0 mph6.4 kmh 30.09 in1019.0 mb 0.00 in0.0 mm 0.00 in/hr0.0 mm/hr 0.00 in0.0 mm
01:04 AM 75.7°F24.3°C 51.6°F10.9°C 43% Calm Calm 6.2 mph10.0 kmh 30.08 in1018.6 mb 0.00 in0.0 mm 0.00 in/hr0.0 mm/hr 0.00 in0.0 mm
01:14 AM 74.2°F23.4°C 52.1°F11.2°C 46% 1.7 mph NW2.7 kmh NW 2.2 mph3.5 kmh 30.09 in1019.0 mb 0.00 in0.0 mm 0.00 in/hr0.0 mm/hr 0.00 in0.0 mm
01:25 AM 74.2°F23.4°C 51.5°F10.8°C 45% 5.9 mph WNW9.5 kmh WNW 8.4 mph13.5 kmh 30.09 in1019.0 mb 0.00 in0.0 mm 0.00 in/hr0.0 mm/hr 0.00 in0.0 mm
01:35 AM 74.1°F23.4°C 52.0°F11.1°C 46% 4.6 mph WNW7.4 kmh WNW 8.4 mph13.5 kmh 30.09 in1019.0 mb 0.00 in0.0 mm 0.00 in/hr0.0 mm/hr 0.00 in0.0 mm
01:45 AM 73.9°F23.3°C 52.4°F11.3°C 47% Calm Calm 4.4 mph7.1 kmh 30.09 in1019.0 mb 0.00 in0.0 mm 0.00 in/hr0.0 mm/hr 0.00 in0.0 mm
01:56 AM 73.0°F22.8°C 52.8°F11.6°C 49% 4.4 mph WSW7.1 kmh WSW 6.2 mph10.0 kmh 30.08 in1018.6 mb 0.00 in0.0 mm 0.00 in/hr0.0 mm/hr 0.00 in0.0 mm
02:07 AM 72.4°F22.4°C 51.0°F10.6°C 47% 5.0 mph SE8.0 kmh SE 8.4 mph13.5 kmh 30.08 in1018.6 mb 0.00 in0.0 mm 0.00 in/hr0.0 mm/hr 0.00 in0.0 mm
02:17 AM 72.8°F22.7°C 50.8°F10.4°C 46% 4.6 mph WNW7.4 kmh WNW 6.2 mph10.0 kmh 30.08 in1018.6 mb 0.00 in0.0 mm 0.00 in/hr0.0 mm/hr 0.00 in0.0 mm
02:28 AM 72.8°F22.7°C 50.8°F10.4°C 46% Calm Calm 5.8 mph9.3 kmh 30.09 in1019.0 mb 0.00 in0.0 mm 0.00 in/hr0.0 mm/hr 0.00 in0.0 mm
02:38 AM 72.8°F22.7°C 50.2°F10.1°C 45% 1.2 mph SW1.9 kmh SW 1.6 mph2.6 kmh 30.09 in1019.0 mb 0.00 in0.0 mm 0.00 in/hr0.0 mm/hr 0.00 in0.0 mm
02:49 AM 72.4°F22.4°C 51.0°F10.6°C 47% Calm Calm 7.6 mph12.2 kmh 30.09 in1019.0 mb 0.00 in0.0 mm 0.00 in/hr0.0 mm/hr 0.00 in0.0 mm
02:59 AM 70.8°F21.6°C 53.5°F11.9°C 54% Calm Calm 39.8 mph64.1 kmh 30.09 in1019.0 mb 0.00 in0.0 mm 0.00 in/hr0.0 mm/hr 0.00 in0.0 mm
03:09 AM 70.1°F21.2°C 53.3°F11.8°C 55% Calm Calm -- 30.09 in1019.0 mb 0.00 in0.0 mm 0.00 in/hr0.0 mm/hr 0.00 in0.0 mm
03:20 AM 69.7°F20.9°C 53.9°F12.2°C 57% Calm Calm -- 30.09 in1019.0 mb 0.00 in0.0 mm 0.00 in/hr0.0 mm/hr 0.00 in0.0 mm
03:30 AM 68.7°F20.4°C 53.0°F11.7°C 57% Calm Calm -- 30.09 in1019.0 mb 0.00 in0.0 mm 0.00 in/hr0.0 mm/hr 0.00 in0.0 mm
03:41 AM 69.0°F20.6°C 53.3°F11.8°C 57% Calm Calm -- 30.09 in1019.0 mb 0.00 in0.0 mm 0.00 in/hr0.0 mm/hr 0.00 in0.0 mm
03:52 AM 69.9°F21.1°C 53.6°F12.0°C 56% Calm Calm 2.2 mph3.5 kmh 30.10 in1019.3 mb 0.00 in0.0 mm 0.00 in/hr0.0 mm/hr 0.00 in0.0 mm
04:02 AM 70.3°F21.3°C 53.5°F11.9°C 55% Calm Calm 7.0 mph11.3 kmh 30.10 in1019.3 mb 0.00 in0.0 mm 0.00 in/hr0.0 mm/hr 0.00 in0.0 mm
04:12 AM 70.3°F21.3°C 53.5°F11.9°C 55% Calm Calm -- 30.10 in1019.3 mb 0.00 in0.0 mm 0.00 in/hr0.0 mm/hr 0.00 in0.0 mm
04:23 AM 70.6°F21.4°C 53.3°F11.8°C 54% 0.6 mph SSW1.0 kmh SSW 0.8 mph1.3 kmh 30.10 in1019.3 mb 0.00 in0.0 mm 0.00 in/hr0.0 mm/hr 0.00 in0.0 mm
04:33 AM 70.5°F21.4°C 53.2°F11.8°C 54% Calm Calm 0.8 mph1.3 kmh 30.10 in1019.3 mb 0.00 in0.0 mm 0.00 in/hr0.0 mm/hr 0.00 in0.0 mm
04:44 AM 70.5°F21.4°C 53.2°F11.8°C 54% Calm Calm -- 30.11 in1019.6 mb 0.00 in0.0 mm 0.00 in/hr0.0 mm/hr 0.00 in0.0 mm
04:54 AM 69.4°F20.8°C 52.7°F11.5°C 55% Calm Calm -- 30.11 in1019.6 mb 0.00 in0.0 mm 0.00 in/hr0.0 mm/hr 0.00 in0.0 mm
05:05 AM 69.2°F20.7°C 53.0°F11.7°C 56% Calm Calm -- 30.11 in1019.6 mb 0.00 in0.0 mm 0.00 in/hr0.0 mm/hr 0.00 in0.0 mm
05:15 AM 69.0°F20.6°C 52.8°F11.6°C 56% Calm Calm -- 30.12 in1020.0 mb 0.00 in0.0 mm 0.00 in/hr0.0 mm/hr 0.00 in0.0 mm
05:26 AM 69.0°F20.6°C 53.3°F11.8°C 57% Calm Calm -- 30.12 in1020.0 mb 0.00 in0.0 mm 0.00 in/hr0.0 mm/hr 0.00 in0.0 mm
05:36 AM 68.5°F20.3°C 52.8°F11.6°C 57% Calm Calm -- 30.12 in1020.0 mb 0.00 in0.0 mm 0.00 in/hr0.0 mm/hr 0.00 in0.0 mm
05:47 AM 68.3°F20.2°C 52.6°F11.4°C 57% Calm Calm -- 30.12 in1020.0 mb 0.00 in0.0 mm 0.00 in/hr0.0 mm/hr 0.00 in0.0 mm
05:57 AM 68.1°F20.1°C 51.9°F11.1°C 56% Calm Calm -- 30.13 in1020.3 mb 0.00 in0.0 mm 0.00 in/hr0.0 mm/hr 0.00 in0.0 mm
06:08 AM 68.5°F20.3°C 52.8°F11.6°C 57% Calm Calm -- 30.13 in1020.3 mb 0.00 in0.0 mm 0.00 in/hr0.0 mm/hr 0.00 in0.0 mm
06:18 AM 69.0°F20.6°C 53.3°F11.8°C 57% Calm Calm -- 30.13 in1020.3 mb 0.00 in0.0 mm 0.00 in/hr0.0 mm/hr 0.00 in0.0 mm
06:29 AM 69.9°F21.1°C 53.6°F12.0°C 56% Calm Calm -- 30.13 in1020.3 mb 0.00 in0.0 mm 0.00 in/hr0.0 mm/hr 0.00 in0.0 mm
06:39 AM 71.5°F21.9°C 54.1°F12.3°C 54% Calm Calm -- 30.13 in1020.3 mb 0.00 in0.0 mm 0.00 in/hr0.0 mm/hr 0.00 in0.0 mm
06:50 AM 73.0°F22.8°C 53.3°F11.8°C 50% Calm Calm -- 30.13 in1020.3 mb 0.00 in0.0 mm 0.00 in/hr0.0 mm/hr 0.00 in0.0 mm
07:00 AM 73.0°F22.8°C 54.4°F12.4°C 52% Calm Calm -- 30.13 in1020.3 mb 0.00 in0.0 mm 0.00 in/hr0.0 mm/hr 0.00 in0.0 mm
07:11 AM 73.3°F22.9°C 56.3°F13.5°C 55% Calm Calm -- 30.14 in1020.7 mb 0.00 in0.0 mm 0.00 in/hr0.0 mm/hr 0.00 in0.0 mm
07:21 AM 73.3°F22.9°C 55.3°F12.9°C 53% Calm Calm -- 30.14 in1020.7 mb 0.00 in0.0 mm 0.00 in/hr0.0 mm/hr 0.00 in0.0 mm
07:32 AM 77.8°F25.4°C 56.0°F13.3°C 47% Calm Calm -- 30.13 in1020.3 mb 0.00 in0.0 mm 0.00 in/hr0.0 mm/hr 0.00 in0.0 mm
07:42 AM 79.1°F26.2°C 55.3°F12.9°C 44% Calm Calm -- 30.14 in1020.7 mb 0.00 in0.0 mm 0.00 in/hr0.0 mm/hr 0.00 in0.0 mm
07:53 AM 79.8°F26.6°C 54.6°F12.6°C 42% Calm Calm -- 30.14 in1020.7 mb 0.00 in0.0 mm 0.00 in/hr0.0 mm/hr 0.00 in0.0 mm
08:03 AM 83.9°F28.8°C 55.5°F13.1°C 38% Calm Calm -- 30.14 in1020.7 mb 0.00 in0.0 mm 0.00 in/hr0.0 mm/hr 0.00 in0.0 mm
08:14 AM 82.5°F28.1°C 53.5°F11.9°C 37% 0.9 mph NE1.4 kmh NE 1.2 mph1.9 kmh 30.14 in1020.7 mb 0.00 in0.0 mm 0.00 in/hr0.0 mm/hr 0.00 in0.0 mm
08:24 AM 82.6°F28.1°C 55.0°F12.8°C 39% Calm Calm -- 30.14 in1020.7 mb 0.00 in0.0 mm 0.00 in/hr0.0 mm/hr 0.00 in0.0 mm
08:34 AM 84.0°F28.9°C 54.8°F12.7°C 37% Calm Calm -- 30.13 in1020.3 mb 0.00 in0.0 mm 0.00 in/hr0.0 mm/hr 0.00 in0.0 mm
08:45 AM 85.0°F29.4°C 54.2°F12.3°C 35% Calm Calm -- 30.14 in1020.7 mb 0.00 in0.0 mm 0.00 in/hr0.0 mm/hr 0.00 in0.0 mm
08:55 AM 84.6°F29.2°C 55.3°F12.9°C 37% Calm Calm -- 30.13 in1020.3 mb 0.00 in0.0 mm 0.00 in/hr0.0 mm/hr 0.00 in0.0 mm
09:06 AM 85.8°F29.9°C 54.1°F12.3°C 34% Calm Calm -- 30.13 in1020.3 mb 0.00 in0.0 mm 0.00 in/hr0.0 mm/hr 0.00 in0.0 mm
09:17 AM 85.1°F29.5°C 53.5°F11.9°C 34% Calm Calm -- 30.13 in1020.3 mb 0.00 in0.0 mm 0.00 in/hr0.0 mm/hr 0.00 in0.0 mm
09:27 AM 85.0°F29.4°C 53.4°F11.9°C 34% Calm Calm 2.2 mph3.5 kmh 30.12 in1020.0 mb 0.00 in0.0 mm 0.00 in/hr0.0 mm/hr 0.00 in0.0 mm
09:38 AM 84.7°F29.3°C 53.1°F11.7°C 34% 2.6 mph WNW4.2 kmh WNW 54.0 mph86.9 kmh 30.12 in1020.0 mb 0.00 in0.0 mm 0.00 in/hr0.0 mm/hr 0.00 in0.0 mm
09:48 AM 87.9°F31.1°C 52.5°F11.4°C 30% 1.7 mph WNW2.7 kmh WNW 2.2 mph3.5 kmh 30.12 in1020.0 mb 0.00 in0.0 mm 0.00 in/hr0.0 mm/hr 0.00 in0.0 mm
09:58 AM 87.6°F30.9°C 52.2°F11.2°C 30% 2.5 mph N4.0 kmh N 4.4 mph7.1 kmh 30.12 in1020.0 mb 0.00 in0.0 mm 0.00 in/hr0.0 mm/hr 0.00 in0.0 mm
10:09 AM 89.7°F32.1°C 54.0°F12.2°C 30% 0.9 mph W1.4 kmh W 3.0 mph4.8 kmh 30.12 in1020.0 mb 0.00 in0.0 mm 0.00 in/hr0.0 mm/hr 0.00 in0.0 mm
10:19 AM 87.0°F30.6°C 51.7°F10.9°C 30% 1.2 mph 1.9 kmh 1.6 mph2.6 kmh 30.12 in1020.0 mb 0.00 in0.0 mm 0.00 in/hr0.0 mm/hr 0.00 in0.0 mm
10:30 AM 86.0°F30.0°C 52.6°F11.4°C 32% 2.6 mph SE4.2 kmh SE 5.8 mph9.3 kmh 30.12 in1020.0 mb 0.00 in0.0 mm 0.00 in/hr0.0 mm/hr 0.00 in0.0 mm
10:40 AM 90.6°F32.6°C 52.0°F11.1°C 27% Calm Calm -- 30.11 in1019.6 mb 0.00 in0.0 mm 0.00 in/hr0.0 mm/hr 0.00 in0.0 mm
10:51 AM 90.6°F32.6°C 51.0°F10.6°C 26% 2.6 mph NNW4.2 kmh NNW 7.0 mph11.3 kmh 30.11 in1019.6 mb 0.00 in0.0 mm 0.00 in/hr0.0 mm/hr 0.00 in0.0 mm
11:01 AM 92.9°F33.8°C 50.8°F10.4°C 24% Calm Calm -- 30.10 in1019.3 mb 0.00 in0.0 mm 0.00 in/hr0.0 mm/hr 0.00 in0.0 mm
11:12 AM 91.3°F32.9°C 51.6°F10.9°C 26% 4.0 mph NE6.4 kmh NE 8.4 mph13.5 kmh 30.10 in1019.3 mb 0.00 in0.0 mm 0.00 in/hr0.0 mm/hr 0.00 in0.0 mm
11:22 AM 91.3°F32.9°C 50.5°F10.3°C 25% 1.2 mph NNW1.9 kmh NNW 42.0 mph67.6 kmh 30.10 in1019.3 mb 0.00 in0.0 mm 0.00 in/hr0.0 mm/hr 0.00 in0.0 mm
11:33 AM 88.9°F31.6°C 49.5°F9.7°C 26% 6.6 mph ENE10.6 kmh ENE 8.8 mph14.2 kmh 30.10 in1019.3 mb 0.00 in0.0 mm 0.00 in/hr0.0 mm/hr 0.00 in0.0 mm
11:43 AM 91.0°F32.8°C 50.3°F10.2°C 25% 0.6 mph NNW1.0 kmh NNW 5.2 mph8.4 kmh 30.10 in1019.3 mb 0.00 in0.0 mm 0.00 in/hr0.0 mm/hr 0.00 in0.0 mm
11:54 AM 92.9°F33.8°C 50.7°F10.4°C 24% 4.4 mph NW7.1 kmh NW 5.8 mph9.3 kmh 30.09 in1019.0 mb 0.00 in0.0 mm 0.00 in/hr0.0 mm/hr 0.00 in0.0 mm
12:04 PM 94.1°F34.5°C 50.6°F10.3°C 23% 3.3 mph NW5.3 kmh NW 5.8 mph9.3 kmh 30.09 in1019.0 mb 0.00 in0.0 mm 0.00 in/hr0.0 mm/hr 0.00 in0.0 mm
12:15 PM 90.0°F32.2°C 49.4°F9.7°C 25% 4.4 mph NW7.1 kmh NW 8.4 mph13.5 kmh 30.08 in1018.6 mb 0.00 in0.0 mm 0.00 in/hr0.0 mm/hr 0.00 in0.0 mm
12:25 PM 89.1°F31.7°C 49.7°F9.8°C 26% Calm Calm -- 30.08 in1018.6 mb 0.00 in0.0 mm 0.00 in/hr0.0 mm/hr 0.00 in0.0 mm
12:36 PM 91.3°F32.9°C 49.4°F9.7°C 24% Calm Calm -- 30.07 in1018.3 mb 0.00 in0.0 mm 0.00 in/hr0.0 mm/hr 0.00 in0.0 mm
12:47 PM 92.2°F33.4°C 50.2°F10.1°C 24% 2.6 mph W4.2 kmh W 5.2 mph8.4 kmh 30.07 in1018.3 mb 0.00 in0.0 mm 0.00 in/hr0.0 mm/hr 0.00 in0.0 mm
12:57 PM 92.0°F33.3°C 52.1°F11.2°C 26% 6.3 mph ENE10.1 kmh ENE 8.4 mph13.5 kmh 30.07 in1018.3 mb 0.00 in0.0 mm 0.00 in/hr0.0 mm/hr 0.00 in0.0 mm
01:08 PM 92.7°F33.7°C 49.5°F9.7°C 23% 2.3 mph NE3.7 kmh NE 3.0 mph4.8 kmh 30.06 in1017.9 mb 0.00 in0.0 mm 0.00 in/hr0.0 mm/hr 0.00 in0.0 mm
01:18 PM 88.4°F31.3°C 48.0°F8.9°C 25% 3.5 mph NE5.6 kmh NE 41.0 mph66.0 kmh 30.06 in1017.9 mb 0.00 in0.0 mm 0.00 in/hr0.0 mm/hr 0.00 in0.0 mm
01:29 PM 88.8°F31.6°C 49.4°F9.7°C 26% Calm Calm 4.4 mph7.1 kmh 30.06 in1017.9 mb 0.00 in0.0 mm 0.00 in/hr0.0 mm/hr 0.00 in0.0 mm
01:39 PM 89.8°F32.1°C 51.2°F10.7°C 27% Calm Calm 0.8 mph1.3 kmh 30.06 in1017.9 mb 0.00 in0.0 mm 0.00 in/hr0.0 mm/hr 0.00 in0.0 mm
01:50 PM 85.5°F29.7°C 51.3°F10.7°C 31% 3.0 mph NW4.8 kmh NW 53.6 mph86.3 kmh 30.06 in1017.9 mb 0.00 in0.0 mm 0.00 in/hr0.0 mm/hr 0.00 in0.0 mm
02:00 PM 83.8°F28.8°C 51.5°F10.8°C 33% 4.1 mph W6.6 kmh W 57.2 mph92.1 kmh 30.06 in1017.9 mb 0.00 in0.0 mm 0.00 in/hr0.0 mm/hr 0.00 in0.0 mm
02:10 PM 83.6°F28.7°C 51.3°F10.7°C 33% 1.7 mph W2.7 kmh W 23.2 mph37.3 kmh 30.06 in1017.9 mb 0.00 in0.0 mm 0.00 in/hr0.0 mm/hr 0.00 in0.0 mm
02:21 PM 83.1°F28.4°C 50.8°F10.4°C 33% Calm Calm 6.6 mph10.6 kmh 30.06 in1017.9 mb 0.00 in0.0 mm 0.00 in/hr0.0 mm/hr 0.00 in0.0 mm
02:32 PM 81.5°F27.5°C 50.3°F10.2°C 34% 8.0 mph NE12.9 kmh NE 34.4 mph55.4 kmh 30.05 in1017.6 mb 0.00 in0.0 mm 0.00 in/hr0.0 mm/hr 0.00 in0.0 mm
02:42 PM 80.0°F26.7°C 52.7°F11.5°C 39% 5.3 mph NE8.5 kmh NE 46.0 mph74.0 kmh 30.06 in1017.9 mb 0.00 in0.0 mm 0.00 in/hr0.0 mm/hr 0.00 in0.0 mm
02:53 PM 81.7°F27.6°C 52.0°F11.1°C 36% 1.2 mph NNW1.9 kmh NNW 4.4 mph7.1 kmh 30.05 in1017.6 mb 0.00 in0.0 mm 0.00 in/hr0.0 mm/hr 0.00 in0.0 mm
03:03 PM 83.8°F28.8°C 51.5°F10.8°C 33% 4.5 mph N7.2 kmh N 7.0 mph11.3 kmh 30.05 in1017.6 mb 0.00 in0.0 mm 0.00 in/hr0.0 mm/hr 0.00 in0.0 mm
03:14 PM 85.2°F29.6°C 51.9°F11.1°C 32% Calm Calm 5.2 mph8.4 kmh 30.04 in1017.3 mb 0.00 in0.0 mm 0.00 in/hr0.0 mm/hr 0.00 in0.0 mm
03:24 PM 86.7°F30.4°C 51.4°F10.8°C 30% 3.6 mph NW5.8 kmh NW 7.0 mph11.3 kmh 30.04 in1017.3 mb 0.00 in0.0 mm 0.00 in/hr0.0 mm/hr 0.00 in0.0 mm
03:34 PM 90.6°F32.6°C 50.9°F10.5°C 26% 5.4 mph WNW8.7 kmh WNW 51.0 mph82.1 kmh 30.04 in1017.3 mb 0.00 in0.0 mm 0.00 in/hr0.0 mm/hr 0.00 in0.0 mm
03:45 PM 91.0°F32.8°C 51.3°F10.7°C 26% 5.3 mph NW8.5 kmh NW 55.4 mph89.2 kmh 30.03 in1016.9 mb 0.00 in0.0 mm 0.00 in/hr0.0 mm/hr 0.00 in0.0 mm
03:55 PM 90.4°F32.4°C 51.8°F11.0°C 27% Calm Calm 4.8 mph7.7 kmh 30.04 in1017.3 mb 0.00 in0.0 mm 0.00 in/hr0.0 mm/hr 0.00 in0.0 mm
04:06 PM 85.2°F29.6°C 52.7°F11.5°C 33% 7.7 mph SW12.4 kmh SW 54.4 mph87.5 kmh 30.04 in1017.3 mb 0.00 in0.0 mm 0.00 in/hr0.0 mm/hr 0.00 in0.0 mm
04:16 PM 81.7°F27.6°C 50.5°F10.3°C 34% 4.9 mph WSW7.9 kmh WSW 55.0 mph88.5 kmh 30.04 in1017.3 mb 0.00 in0.0 mm 0.00 in/hr0.0 mm/hr 0.00 in0.0 mm
04:27 PM 80.9°F27.2°C 48.2°F9.0°C 32% 1.0 mph SW1.6 kmh SW 55.0 mph88.5 kmh 30.04 in1017.3 mb 0.00 in0.0 mm 0.00 in/hr0.0 mm/hr 0.00 in0.0 mm
04:37 PM 80.0°F26.7°C 52.0°F11.1°C 38% 2.3 mph WNW3.7 kmh WNW 6.2 mph10.0 kmh 30.03 in1016.9 mb 0.00 in0.0 mm 0.00 in/hr0.0 mm/hr 0.00 in0.0 mm
04:48 PM 79.1°F26.2°C 51.9°F11.1°C 39% 3.1 mph W5.0 kmh W 5.2 mph8.4 kmh 30.03 in1016.9 mb 0.00 in0.0 mm 0.00 in/hr0.0 mm/hr 0.00 in0.0 mm
04:58 PM 79.3°F26.3°C 52.1°F11.2°C 39% 3.9 mph WNW6.3 kmh WNW 5.2 mph8.4 kmh 30.03 in1016.9 mb 0.00 in0.0 mm 0.00 in/hr0.0 mm/hr 0.00 in0.0 mm
05:09 PM 79.5°F26.4°C 52.3°F11.3°C 39% 0.6 mph W1.0 kmh W 0.8 mph1.3 kmh 30.02 in1016.6 mb 0.00 in0.0 mm 0.00 in/hr0.0 mm/hr 0.00 in0.0 mm
05:19 PM 79.4°F26.3°C 52.2°F11.2°C 39% Calm Calm -- 30.03 in1016.9 mb 0.00 in0.0 mm 0.00 in/hr0.0 mm/hr 0.00 in0.0 mm
05:30 PM 79.0°F26.1°C 55.2°F12.9°C 44% Calm Calm 2.2 mph3.5 kmh 30.03 in1016.9 mb 0.00 in0.0 mm 0.00 in/hr0.0 mm/hr 0.00 in0.0 mm
05:40 PM 77.3°F25.2°C 57.3°F14.1°C 50% 1.2 mph NW1.9 kmh NW 1.6 mph2.6 kmh 30.03 in1016.9 mb 0.00 in0.0 mm 0.00 in/hr0.0 mm/hr 0.00 in0.0 mm
05:51 PM 77.2°F25.1°C 58.4°F14.7°C 52% Calm Calm -- 30.02 in1016.6 mb 0.00 in0.0 mm 0.00 in/hr0.0 mm/hr 0.00 in0.0 mm
06:02 PM 77.9°F25.5°C 57.3°F14.1°C 49% Calm Calm -- 30.03 in1016.9 mb 0.00 in0.0 mm 0.00 in/hr0.0 mm/hr 0.00 in0.0 mm
06:12 PM 78.8°F26.0°C 57.5°F14.2°C 48% Calm Calm 2.2 mph3.5 kmh 30.04 in1017.3 mb 0.00 in0.0 mm 0.00 in/hr0.0 mm/hr 0.00 in0.0 mm
06:23 PM 79.2°F26.2°C 57.9°F14.4°C 48% Calm Calm -- 30.03 in1016.9 mb 0.00 in0.0 mm 0.00 in/hr0.0 mm/hr 0.00 in0.0 mm
06:33 PM 79.1°F26.2°C 57.2°F14.0°C 47% Calm Calm -- 30.04 in1017.3 mb 0.00 in0.0 mm 0.00 in/hr0.0 mm/hr 0.00 in0.0 mm
06:44 PM 80.1°F26.7°C 54.9°F12.7°C 42% Calm Calm -- 30.05 in1017.6 mb 0.00 in0.0 mm 0.00 in/hr0.0 mm/hr 0.00 in0.0 mm
06:54 PM 80.6°F27.0°C 53.3°F11.8°C 39% 9.2 mph SE14.8 kmh SE 49.2 mph79.2 kmh 30.06 in1017.9 mb 0.00 in0.0 mm 0.00 in/hr0.0 mm/hr 0.00 in0.0 mm
07:04 PM 77.5°F25.3°C 53.9°F12.2°C 44% 14.3 mph SE23.0 kmh SE 44.6 mph71.8 kmh 30.08 in1018.6 mb 0.00 in0.0 mm 0.00 in/hr0.0 mm/hr 0.00 in0.0 mm
07:15 PM 74.1°F23.4°C 55.5°F13.1°C 52% 11.0 mph SE17.7 kmh SE 47.4 mph76.3 kmh 30.09 in1019.0 mb 0.00 in0.0 mm 0.00 in/hr0.0 mm/hr 0.00 in0.0 mm
07:25 PM 73.0°F22.8°C 56.5°F13.6°C 56% 8.7 mph SE14.0 kmh SE 43.8 mph70.5 kmh 30.09 in1019.0 mb 0.00 in0.0 mm 0.00 in/hr0.0 mm/hr 0.00 in0.0 mm
07:36 PM 72.1°F22.3°C 56.7°F13.7°C 58% 8.8 mph SSE14.2 kmh SSE 60.8 mph97.8 kmh 30.09 in1019.0 mb 0.00 in0.0 mm 0.00 in/hr0.0 mm/hr 0.00 in0.0 mm
07:46 PM 72.3°F22.4°C 56.4°F13.6°C 57% 1.4 mph S2.3 kmh S 46.4 mph74.7 kmh 30.09 in1019.0 mb 0.00 in0.0 mm 0.00 in/hr0.0 mm/hr 0.00 in0.0 mm
07:57 PM 72.6°F22.6°C 55.7°F13.2°C 55% 5.6 mph SSE9.0 kmh SSE 33.0 mph53.1 kmh 30.09 in1019.0 mb 0.00 in0.0 mm 0.00 in/hr0.0 mm/hr 0.00 in0.0 mm
08:07 PM 72.6°F22.6°C 55.7°F13.2°C 55% 5.8 mph SSE9.3 kmh SSE 31.6 mph50.9 kmh 30.10 in1019.3 mb 0.00 in0.0 mm 0.00 in/hr0.0 mm/hr 0.00 in0.0 mm
08:18 PM 73.0°F22.8°C 55.0°F12.8°C 53% 6.3 mph SE10.1 kmh SE 8.4 mph13.5 kmh 30.09 in1019.0 mb 0.00 in0.0 mm 0.00 in/hr0.0 mm/hr 0.00 in0.0 mm
08:28 PM 73.5°F23.1°C 54.4°F12.4°C 51% Calm Calm 4.0 mph6.4 kmh 30.09 in1019.0 mb 0.00 in0.0 mm 0.00 in/hr0.0 mm/hr 0.00 in0.0 mm
08:39 PM 73.9°F23.3°C 53.6°F12.0°C 49% 5.4 mph S8.7 kmh S 54.0 mph86.9 kmh 30.09 in1019.0 mb 0.00 in0.0 mm 0.00 in/hr0.0 mm/hr 0.00 in0.0 mm
08:49 PM 74.1°F23.4°C 53.8°F12.1°C 49% 1.1 mph SE1.8 kmh SE 4.0 mph6.4 kmh 30.09 in1019.0 mb 0.00 in0.0 mm 0.00 in/hr0.0 mm/hr 0.00 in0.0 mm
09:00 PM 74.6°F23.7°C 52.5°F11.4°C 46% 2.6 mph SSW4.2 kmh SSW 3.4 mph5.5 kmh 30.07 in1018.3 mb 0.00 in0.0 mm 0.00 in/hr0.0 mm/hr 0.00 in0.0 mm
09:10 PM 75.1°F23.9°C 51.0°F10.6°C 43% Calm Calm 4.4 mph7.1 kmh 30.06 in1017.9 mb 0.00 in0.0 mm 0.00 in/hr0.0 mm/hr 0.00 in0.0 mm
09:21 PM 74.8°F23.8°C 50.8°F10.4°C 43% Calm Calm -- 30.06 in1017.9 mb 0.00 in0.0 mm 0.00 in/hr0.0 mm/hr 0.00 in0.0 mm
09:32 PM 74.8°F23.8°C 51.4°F10.8°C 44% Calm Calm -- 30.06 in1017.9 mb 0.00 in0.0 mm 0.00 in/hr0.0 mm/hr 0.00 in0.0 mm
09:42 PM 74.8°F23.8°C 53.2°F11.8°C 47% 3.9 mph ESE6.3 kmh ESE 5.2 mph8.4 kmh 30.06 in1017.9 mb 0.00 in0.0 mm 0.00 in/hr0.0 mm/hr 0.00 in0.0 mm
09:53 PM 73.5°F23.1°C 54.4°F12.4°C 51% Calm Calm -- 30.05 in1017.6 mb 0.00 in0.0 mm 0.00 in/hr0.0 mm/hr 0.00 in0.0 mm
10:03 PM 71.7°F22.1°C 56.3°F13.5°C 58% Calm Calm 5.2 mph8.4 kmh 30.05 in1017.6 mb 0.00 in0.0 mm 0.00 in/hr0.0 mm/hr 0.00 in0.0 mm
10:14 PM 70.6°F21.4°C 56.2°F13.4°C 60% Calm Calm -- 30.05 in1017.6 mb 0.00 in0.0 mm 0.00 in/hr0.0 mm/hr 0.00 in0.0 mm
10:24 PM 70.5°F21.4°C 56.6°F13.7°C 61% 4.9 mph SSE7.9 kmh SSE 6.6 mph10.6 kmh 30.05 in1017.6 mb 0.00 in0.0 mm 0.00 in/hr0.0 mm/hr 0.00 in0.0 mm
10:35 PM 70.1°F21.2°C 56.7°F13.7°C 62% Calm Calm 6.6 mph10.6 kmh 30.05 in1017.6 mb 0.00 in0.0 mm 0.00 in/hr0.0 mm/hr 0.00 in0.0 mm
10:45 PM 69.7°F20.9°C 55.8°F13.2°C 61% Calm Calm -- 30.04 in1017.3 mb 0.00 in0.0 mm 0.00 in/hr0.0 mm/hr 0.00 in0.0 mm
10:56 PM 69.6°F20.9°C 55.3°F12.9°C 60% Calm Calm -- 30.06 in1017.9 mb 0.00 in0.0 mm 0.00 in/hr0.0 mm/hr 0.00 in0.0 mm
11:06 PM 69.6°F20.9°C 55.3°F12.9°C 60% Calm Calm -- 30.06 in1017.9 mb 0.00 in0.0 mm 0.00 in/hr0.0 mm/hr 0.00 in0.0 mm
11:16 PM 70.6°F21.4°C 55.3°F12.9°C 58% Calm Calm -- 30.06 in1017.9 mb 0.00 in0.0 mm 0.00 in/hr0.0 mm/hr 0.00 in0.0 mm
11:27 PM 70.6°F21.4°C 54.8°F12.7°C 57% Calm Calm -- 30.06 in1017.9 mb 0.00 in0.0 mm 0.00 in/hr0.0 mm/hr 0.00 in0.0 mm
11:37 PM 71.0°F21.7°C 54.7°F12.6°C 56% Calm Calm -- 30.05 in1017.6 mb 0.00 in0.0 mm 0.00 in/hr0.0 mm/hr 0.00 in0.0 mm
11:48 PM 71.0°F21.7°C 54.2°F12.3°C 55% Calm Calm -- 30.05 in1017.6 mb 0.00 in0.0 mm 0.00 in/hr0.0 mm/hr 0.00 in0.0 mm
11:58 PM 71.5°F21.9°C 55.1°F12.8°C 56% 3.0 mph NE4.8 kmh NE 4.0 mph6.4 kmh 30.05 in1017.6 mb 0.00 in0.0 mm 0.00 in/hr0.0 mm/hr 0.00 in0.0 mm